sensor_id;sensor_type;location;lat;lon;timestamp;P1;durP1;ratioP1;P2;durP2;ratioP2
38117;SDS011;23928;47.562;7.508;2023-12-28T00:02:16;11.43;;;6.77;;
38117;SDS011;23928;47.562;7.508;2023-12-28T00:04:41;10.70;;;7.20;;
38117;SDS011;23928;47.562;7.508;2023-12-28T00:07:07;13.60;;;7.80;;
38117;SDS011;23928;47.562;7.508;2023-12-28T00:09:32;14.37;;;7.40;;
38117;SDS011;23928;47.562;7.508;2023-12-28T00:11:58;11.80;;;6.90;;
38117;SDS011;23928;47.562;7.508;2023-12-28T00:14:24;11.87;;;7.60;;
38117;SDS011;23928;47.562;7.508;2023-12-28T00:16:49;14.63;;;7.90;;
38117;SDS011;23928;47.562;7.508;2023-12-28T00:19:15;14.87;;;8.37;;
38117;SDS011;23928;47.562;7.508;2023-12-28T00:21:41;14.50;;;8.30;;
38117;SDS011;23928;47.562;7.508;2023-12-28T00:24:06;10.70;;;6.40;;
38117;SDS011;23928;47.562;7.508;2023-12-28T00:26:32;12.53;;;6.43;;
38117;SDS011;23928;47.562;7.508;2023-12-28T00:28:57;9.27;;;6.13;;
38117;SDS011;23928;47.562;7.508;2023-12-28T00:31:23;9.93;;;6.50;;
38117;SDS011;23928;47.562;7.508;2023-12-28T00:33:49;10.23;;;5.77;;
38117;SDS011;23928;47.562;7.508;2023-12-28T00:36:15;12.00;;;7.93;;
38117;SDS011;23928;47.562;7.508;2023-12-28T00:38:41;14.60;;;8.03;;
38117;SDS011;23928;47.562;7.508;2023-12-28T00:41:07;14.47;;;8.13;;
38117;SDS011;23928;47.562;7.508;2023-12-28T00:43:32;10.73;;;7.50;;
38117;SDS011;23928;47.562;7.508;2023-12-28T00:45:58;15.07;;;8.60;;
38117;SDS011;23928;47.562;7.508;2023-12-28T00:48:24;13.77;;;8.00;;
38117;SDS011;23928;47.562;7.508;2023-12-28T00:50:50;9.17;;;6.87;;
38117;SDS011;23928;47.562;7.508;2023-12-28T00:53:15;10.33;;;6.53;;
38117;SDS011;23928;47.562;7.508;2023-12-28T00:55:41;11.63;;;6.90;;
38117;SDS011;23928;47.562;7.508;2023-12-28T00:58:06;11.70;;;6.93;;
38117;SDS011;23928;47.562;7.508;2023-12-28T01:00:32;13.17;;;8.03;;
38117;SDS011;23928;47.562;7.508;2023-12-28T01:02:57;10.97;;;6.50;;
38117;SDS011;23928;47.562;7.508;2023-12-28T01:05:23;8.93;;;6.40;;
38117;SDS011;23928;47.562;7.508;2023-12-28T01:07:51;9.63;;;6.63;;
38117;SDS011;23928;47.562;7.508;2023-12-28T01:10:16;10.83;;;6.10;;
38117;SDS011;23928;47.562;7.508;2023-12-28T01:12:42;13.10;;;6.27;;
38117;SDS011;23928;47.562;7.508;2023-12-28T01:15:08;8.27;;;5.97;;
38117;SDS011;23928;47.562;7.508;2023-12-28T01:17:33;8.57;;;6.07;;
38117;SDS011;23928;47.562;7.508;2023-12-28T01:19:59;7.70;;;5.43;;
38117;SDS011;23928;47.562;7.508;2023-12-28T01:22:25;7.17;;;5.13;;
38117;SDS011;23928;47.562;7.508;2023-12-28T01:24:50;7.33;;;5.33;;
38117;SDS011;23928;47.562;7.508;2023-12-28T01:27:16;9.17;;;5.90;;
38117;SDS011;23928;47.562;7.508;2023-12-28T01:29:42;11.03;;;7.60;;
38117;SDS011;23928;47.562;7.508;2023-12-28T01:32:07;7.90;;;6.00;;
38117;SDS011;23928;47.562;7.508;2023-12-28T01:34:33;11.00;;;6.73;;
38117;SDS011;23928;47.562;7.508;2023-12-28T01:36:58;14.73;;;8.20;;
38117;SDS011;23928;47.562;7.508;2023-12-28T01:39:24;14.13;;;9.10;;
38117;SDS011;23928;47.562;7.508;2023-12-28T01:41:49;16.33;;;9.07;;
38117;SDS011;23928;47.562;7.508;2023-12-28T01:44:15;12.90;;;8.77;;
38117;SDS011;23928;47.562;7.508;2023-12-28T01:46:41;12.23;;;7.80;;
38117;SDS011;23928;47.562;7.508;2023-12-28T01:49:07;10.23;;;6.20;;
38117;SDS011;23928;47.562;7.508;2023-12-28T01:51:32;10.00;;;5.83;;
38117;SDS011;23928;47.562;7.508;2023-12-28T01:53:59;10.87;;;5.97;;
38117;SDS011;23928;47.562;7.508;2023-12-28T01:56:25;10.23;;;5.90;;
38117;SDS011;23928;47.562;7.508;2023-12-28T01:58:51;8.20;;;5.97;;
38117;SDS011;23928;47.562;7.508;2023-12-28T02:01:18;9.17;;;5.50;;
38117;SDS011;23928;47.562;7.508;2023-12-28T02:03:44;9.37;;;6.00;;
38117;SDS011;23928;47.562;7.508;2023-12-28T02:06:10;7.43;;;5.73;;
38117;SDS011;23928;47.562;7.508;2023-12-28T02:08:38;7.60;;;4.83;;
38117;SDS011;23928;47.562;7.508;2023-12-28T02:11:04;7.00;;;5.13;;
38117;SDS011;23928;47.562;7.508;2023-12-28T02:13:29;6.60;;;4.80;;
38117;SDS011;23928;47.562;7.508;2023-12-28T02:15:59;9.77;;;4.60;;
38117;SDS011;23928;47.562;7.508;2023-12-28T02:18:39;9.93;;;5.57;;
38117;SDS011;23928;47.562;7.508;2023-12-28T02:21:08;7.70;;;4.80;;
38117;SDS011;23928;47.562;7.508;2023-12-28T02:23:37;7.13;;;4.70;;
38117;SDS011;23928;47.562;7.508;2023-12-28T02:26:02;6.83;;;4.23;;
38117;SDS011;23928;47.562;7.508;2023-12-28T02:28:28;5.67;;;4.50;;
38117;SDS011;23928;47.562;7.508;2023-12-28T02:30:54;7.37;;;4.27;;
38117;SDS011;23928;47.562;7.508;2023-12-28T02:36:07;9.23;;;4.53;;
38117;SDS011;23928;47.562;7.508;2023-12-28T02:38:36;8.20;;;4.87;;
38117;SDS011;23928;47.562;7.508;2023-12-28T02:41:03;6.77;;;5.00;;
38117;SDS011;23928;47.562;7.508;2023-12-28T02:43:29;8.40;;;4.73;;
38117;SDS011;23928;47.562;7.508;2023-12-28T02:45:55;8.07;;;5.13;;
38117;SDS011;23928;47.562;7.508;2023-12-28T02:48:21;5.77;;;4.57;;
38117;SDS011;23928;47.562;7.508;2023-12-28T02:50:47;8.37;;;5.10;;
38117;SDS011;23928;47.562;7.508;2023-12-28T02:53:12;9.63;;;5.50;;
38117;SDS011;23928;47.562;7.508;2023-12-28T02:55:38;8.67;;;5.90;;
38117;SDS011;23928;47.562;7.508;2023-12-28T02:58:04;10.13;;;5.47;;
38117;SDS011;23928;47.562;7.508;2023-12-28T03:00:30;7.40;;;4.30;;
38117;SDS011;23928;47.562;7.508;2023-12-28T03:02:55;7.40;;;4.80;;
38117;SDS011;23928;47.562;7.508;2023-12-28T03:05:21;8.93;;;5.03;;
38117;SDS011;23928;47.562;7.508;2023-12-28T03:07:47;8.00;;;5.43;;
38117;SDS011;23928;47.562;7.508;2023-12-28T03:10:12;8.70;;;5.43;;
38117;SDS011;23928;47.562;7.508;2023-12-28T03:12:38;10.53;;;5.00;;
38117;SDS011;23928;47.562;7.508;2023-12-28T03:15:04;9.80;;;4.87;;
38117;SDS011;23928;47.562;7.508;2023-12-28T03:17:30;9.03;;;5.20;;
38117;SDS011;23928;47.562;7.508;2023-12-28T03:19:58;7.47;;;5.30;;
38117;SDS011;23928;47.562;7.508;2023-12-28T03:22:23;10.13;;;5.30;;
38117;SDS011;23928;47.562;7.508;2023-12-28T03:24:49;7.50;;;5.20;;
38117;SDS011;23928;47.562;7.508;2023-12-28T03:27:15;7.77;;;4.73;;
38117;SDS011;23928;47.562;7.508;2023-12-28T03:29:41;7.47;;;4.97;;
38117;SDS011;23928;47.562;7.508;2023-12-28T03:32:07;7.10;;;4.87;;
38117;SDS011;23928;47.562;7.508;2023-12-28T03:34:33;8.17;;;5.20;;
38117;SDS011;23928;47.562;7.508;2023-12-28T03:36:59;8.27;;;4.77;;
38117;SDS011;23928;47.562;7.508;2023-12-28T03:39:25;7.73;;;4.90;;
38117;SDS011;23928;47.562;7.508;2023-12-28T03:41:51;7.63;;;4.80;;
38117;SDS011;23928;47.562;7.508;2023-12-28T03:44:19;6.73;;;4.30;;
38117;SDS011;23928;47.562;7.508;2023-12-28T03:46:49;6.67;;;4.57;;
38117;SDS011;23928;47.562;7.508;2023-12-28T03:49:16;6.57;;;4.37;;
38117;SDS011;23928;47.562;7.508;2023-12-28T03:51:45;7.60;;;4.50;;
38117;SDS011;23928;47.562;7.508;2023-12-28T03:54:12;7.63;;;4.30;;
38117;SDS011;23928;47.562;7.508;2023-12-28T03:56:37;9.83;;;4.37;;
38117;SDS011;23928;47.562;7.508;2023-12-28T03:59:08;5.73;;;4.40;;
38117;SDS011;23928;47.562;7.508;2023-12-28T04:01:34;7.63;;;4.37;;
38117;SDS011;23928;47.562;7.508;2023-12-28T04:03:59;6.77;;;4.40;;
38117;SDS011;23928;47.562;7.508;2023-12-28T04:06:25;8.13;;;4.77;;
38117;SDS011;23928;47.562;7.508;2023-12-28T04:08:50;7.10;;;4.83;;
38117;SDS011;23928;47.562;7.508;2023-12-28T04:11:16;8.17;;;4.80;;
38117;SDS011;23928;47.562;7.508;2023-12-28T04:13:42;7.00;;;4.47;;
38117;SDS011;23928;47.562;7.508;2023-12-28T04:16:07;7.37;;;4.70;;
38117;SDS011;23928;47.562;7.508;2023-12-28T04:18:36;6.47;;;4.57;;
38117;SDS011;23928;47.562;7.508;2023-12-28T04:21:02;6.43;;;4.57;;
38117;SDS011;23928;47.562;7.508;2023-12-28T04:23:28;5.93;;;4.33;;
38117;SDS011;23928;47.562;7.508;2023-12-28T04:25:53;6.63;;;4.50;;
38117;SDS011;23928;47.562;7.508;2023-12-28T04:28:19;6.83;;;4.13;;
38117;SDS011;23928;47.562;7.508;2023-12-28T04:30:44;5.93;;;4.07;;
38117;SDS011;23928;47.562;7.508;2023-12-28T04:33:10;5.50;;;4.10;;
38117;SDS011;23928;47.562;7.508;2023-12-28T04:35:35;5.17;;;3.67;;
38117;SDS011;23928;47.562;7.508;2023-12-28T04:38:01;4.93;;;3.87;;
38117;SDS011;23928;47.562;7.508;2023-12-28T04:40:27;7.00;;;4.23;;
38117;SDS011;23928;47.562;7.508;2023-12-28T04:42:53;5.37;;;3.83;;
38117;SDS011;23928;47.562;7.508;2023-12-28T04:45:19;4.50;;;3.80;;
38117;SDS011;23928;47.562;7.508;2023-12-28T04:47:44;4.07;;;3.70;;
38117;SDS011;23928;47.562;7.508;2023-12-28T04:50:10;4.30;;;3.47;;
38117;SDS011;23928;47.562;7.508;2023-12-28T04:52:35;6.20;;;3.83;;
38117;SDS011;23928;47.562;7.508;2023-12-28T04:55:01;5.47;;;3.60;;
38117;SDS011;23928;47.562;7.508;2023-12-28T04:57:26;6.07;;;3.80;;
38117;SDS011;23928;47.562;7.508;2023-12-28T04:59:53;5.00;;;3.70;;
38117;SDS011;23928;47.562;7.508;2023-12-28T05:02:19;6.30;;;4.10;;
38117;SDS011;23928;47.562;7.508;2023-12-28T05:04:45;5.30;;;3.67;;
38117;SDS011;23928;47.562;7.508;2023-12-28T05:07:10;4.53;;;3.40;;
38117;SDS011;23928;47.562;7.508;2023-12-28T05:09:36;7.17;;;3.83;;
38117;SDS011;23928;47.562;7.508;2023-12-28T05:12:02;6.33;;;3.73;;
38117;SDS011;23928;47.562;7.508;2023-12-28T05:14:28;8.57;;;4.43;;
38117;SDS011;23928;47.562;7.508;2023-12-28T05:16:53;4.77;;;3.63;;
38117;SDS011;23928;47.562;7.508;2023-12-28T05:19:19;5.10;;;3.97;;
38117;SDS011;23928;47.562;7.508;2023-12-28T05:21:45;8.77;;;4.43;;
38117;SDS011;23928;47.562;7.508;2023-12-28T05:24:11;6.70;;;4.80;;
38117;SDS011;23928;47.562;7.508;2023-12-28T05:26:37;7.03;;;4.90;;
38117;SDS011;23928;47.562;7.508;2023-12-28T05:29:03;8.00;;;4.67;;
38117;SDS011;23928;47.562;7.508;2023-12-28T05:31:29;7.57;;;4.90;;
38117;SDS011;23928;47.562;7.508;2023-12-28T05:33:54;7.00;;;4.27;;
38117;SDS011;23928;47.562;7.508;2023-12-28T05:36:20;7.07;;;4.70;;
38117;SDS011;23928;47.562;7.508;2023-12-28T05:38:45;9.20;;;5.00;;
38117;SDS011;23928;47.562;7.508;2023-12-28T05:41:11;6.70;;;4.90;;
38117;SDS011;23928;47.562;7.508;2023-12-28T05:43:37;6.33;;;4.33;;
38117;SDS011;23928;47.562;7.508;2023-12-28T05:46:03;8.93;;;5.03;;
38117;SDS011;23928;47.562;7.508;2023-12-28T05:48:29;7.00;;;4.80;;
38117;SDS011;23928;47.562;7.508;2023-12-28T05:50:55;7.77;;;4.83;;
38117;SDS011;23928;47.562;7.508;2023-12-28T05:53:23;6.73;;;4.37;;
38117;SDS011;23928;47.562;7.508;2023-12-28T05:55:49;5.90;;;4.20;;
38117;SDS011;23928;47.562;7.508;2023-12-28T05:58:14;7.87;;;5.00;;
38117;SDS011;23928;47.562;7.508;2023-12-28T06:00:40;9.73;;;4.73;;
38117;SDS011;23928;47.562;7.508;2023-12-28T06:03:05;9.30;;;4.97;;
38117;SDS011;23928;47.562;7.508;2023-12-28T06:05:31;9.50;;;5.93;;
38117;SDS011;23928;47.562;7.508;2023-12-28T06:07:57;7.07;;;5.70;;
38117;SDS011;23928;47.562;7.508;2023-12-28T06:10:22;7.30;;;4.97;;
38117;SDS011;23928;47.562;7.508;2023-12-28T06:12:49;8.67;;;5.07;;
38117;SDS011;23928;47.562;7.508;2023-12-28T06:15:15;6.37;;;4.67;;
38117;SDS011;23928;47.562;7.508;2023-12-28T06:17:40;6.77;;;4.90;;
38117;SDS011;23928;47.562;7.508;2023-12-28T06:20:06;12.07;;;5.63;;
38117;SDS011;23928;47.562;7.508;2023-12-28T06:22:33;12.10;;;5.87;;
38117;SDS011;23928;47.562;7.508;2023-12-28T06:25:01;10.73;;;6.17;;
38117;SDS011;23928;47.562;7.508;2023-12-28T06:27:27;10.27;;;5.67;;
38117;SDS011;23928;47.562;7.508;2023-12-28T06:29:52;9.13;;;5.20;;
38117;SDS011;23928;47.562;7.508;2023-12-28T06:32:18;8.93;;;5.20;;
38117;SDS011;23928;47.562;7.508;2023-12-28T06:34:43;6.30;;;4.53;;
38117;SDS011;23928;47.562;7.508;2023-12-28T06:37:09;9.37;;;4.97;;
38117;SDS011;23928;47.562;7.508;2023-12-28T06:39:34;6.80;;;4.50;;
38117;SDS011;23928;47.562;7.508;2023-12-28T06:42:00;7.10;;;4.43;;
38117;SDS011;23928;47.562;7.508;2023-12-28T06:44:26;6.53;;;4.30;;
38117;SDS011;23928;47.562;7.508;2023-12-28T06:46:51;7.13;;;5.03;;
38117;SDS011;23928;47.562;7.508;2023-12-28T06:49:17;6.00;;;3.90;;
38117;SDS011;23928;47.562;7.508;2023-12-28T06:51:42;5.27;;;4.57;;
38117;SDS011;23928;47.562;7.508;2023-12-28T06:54:10;7.00;;;3.90;;
38117;SDS011;23928;47.562;7.508;2023-12-28T06:56:36;5.20;;;3.93;;
38117;SDS011;23928;47.562;7.508;2023-12-28T06:59:01;5.57;;;4.27;;
38117;SDS011;23928;47.562;7.508;2023-12-28T07:01:27;6.53;;;4.13;;
38117;SDS011;23928;47.562;7.508;2023-12-28T07:03:52;6.80;;;4.17;;
38117;SDS011;23928;47.562;7.508;2023-12-28T07:06:18;8.50;;;5.00;;
38117;SDS011;23928;47.562;7.508;2023-12-28T07:08:44;6.70;;;4.47;;
38117;SDS011;23928;47.562;7.508;2023-12-28T07:11:09;52.40;;;28.70;;
38117;SDS011;23928;47.562;7.508;2023-12-28T07:13:36;22.53;;;12.30;;
38117;SDS011;23928;47.562;7.508;2023-12-28T07:16:02;64.10;;;37.90;;
38117;SDS011;23928;47.562;7.508;2023-12-28T07:18:28;76.13;;;44.03;;
38117;SDS011;23928;47.562;7.508;2023-12-28T07:20:53;26.53;;;15.23;;
38117;SDS011;23928;47.562;7.508;2023-12-28T07:23:19;28.30;;;15.87;;
38117;SDS011;23928;47.562;7.508;2023-12-28T07:25:45;16.63;;;10.53;;
38117;SDS011;23928;47.562;7.508;2023-12-28T07:28:10;19.57;;;12.07;;
38117;SDS011;23928;47.562;7.508;2023-12-28T07:30:37;8.13;;;4.77;;
38117;SDS011;23928;47.562;7.508;2023-12-28T07:33:02;5.30;;;3.73;;
38117;SDS011;23928;47.562;7.508;2023-12-28T07:35:28;6.57;;;4.70;;
38117;SDS011;23928;47.562;7.508;2023-12-28T07:37:54;8.63;;;5.77;;
38117;SDS011;23928;47.562;7.508;2023-12-28T07:40:20;14.33;;;8.37;;
38117;SDS011;23928;47.562;7.508;2023-12-28T07:42:46;10.73;;;5.20;;
38117;SDS011;23928;47.562;7.508;2023-12-28T07:45:11;6.57;;;4.50;;
38117;SDS011;23928;47.562;7.508;2023-12-28T07:47:37;5.50;;;4.30;;
38117;SDS011;23928;47.562;7.508;2023-12-28T07:50:03;7.43;;;4.17;;
38117;SDS011;23928;47.562;7.508;2023-12-28T07:52:29;7.50;;;4.33;;
38117;SDS011;23928;47.562;7.508;2023-12-28T07:54:54;6.43;;;5.40;;
38117;SDS011;23928;47.562;7.508;2023-12-28T07:57:20;8.73;;;5.23;;
38117;SDS011;23928;47.562;7.508;2023-12-28T07:59:46;10.97;;;7.07;;
38117;SDS011;23928;47.562;7.508;2023-12-28T08:02:11;7.70;;;5.77;;
38117;SDS011;23928;47.562;7.508;2023-12-28T08:04:37;7.23;;;5.20;;
38117;SDS011;23928;47.562;7.508;2023-12-28T08:07:03;8.13;;;5.20;;
38117;SDS011;23928;47.562;7.508;2023-12-28T08:09:29;9.47;;;6.07;;
38117;SDS011;23928;47.562;7.508;2023-12-28T08:11:55;11.73;;;6.73;;
38117;SDS011;23928;47.562;7.508;2023-12-28T08:14:21;15.03;;;9.77;;
38117;SDS011;23928;47.562;7.508;2023-12-28T08:16:46;16.30;;;10.93;;
38117;SDS011;23928;47.562;7.508;2023-12-28T08:19:12;10.43;;;6.57;;
38117;SDS011;23928;47.562;7.508;2023-12-28T08:21:38;7.40;;;4.97;;
38117;SDS011;23928;47.562;7.508;2023-12-28T08:24:03;12.37;;;9.60;;
38117;SDS011;23928;47.562;7.508;2023-12-28T08:26:29;12.37;;;7.83;;
38117;SDS011;23928;47.562;7.508;2023-12-28T08:28:55;11.63;;;8.47;;
38117;SDS011;23928;47.562;7.508;2023-12-28T08:31:21;13.37;;;9.27;;
38117;SDS011;23928;47.562;7.508;2023-12-28T08:33:46;23.47;;;6.40;;
38117;SDS011;23928;47.562;7.508;2023-12-28T08:36:12;7.73;;;5.00;;
38117;SDS011;23928;47.562;7.508;2023-12-28T08:38:38;8.87;;;5.10;;
38117;SDS011;23928;47.562;7.508;2023-12-28T08:41:03;8.10;;;4.77;;
38117;SDS011;23928;47.562;7.508;2023-12-28T08:43:33;10.87;;;5.60;;
38117;SDS011;23928;47.562;7.508;2023-12-28T08:46:01;8.13;;;5.27;;
38117;SDS011;23928;47.562;7.508;2023-12-28T08:48:26;8.20;;;3.97;;
38117;SDS011;23928;47.562;7.508;2023-12-28T08:50:52;11.57;;;7.63;;
38117;SDS011;23928;47.562;7.508;2023-12-28T08:53:18;10.77;;;6.30;;
38117;SDS011;23928;47.562;7.508;2023-12-28T08:55:43;10.70;;;7.47;;
38117;SDS011;23928;47.562;7.508;2023-12-28T08:58:09;21.33;;;8.77;;
38117;SDS011;23928;47.562;7.508;2023-12-28T09:00:34;11.23;;;6.63;;
38117;SDS011;23928;47.562;7.508;2023-12-28T09:03:00;14.80;;;6.83;;
38117;SDS011;23928;47.562;7.508;2023-12-28T09:05:26;10.17;;;6.60;;
38117;SDS011;23928;47.562;7.508;2023-12-28T09:07:51;9.73;;;5.77;;
38117;SDS011;23928;47.562;7.508;2023-12-28T09:10:17;14.30;;;8.77;;
38117;SDS011;23928;47.562;7.508;2023-12-28T09:12:42;30.93;;;16.27;;
38117;SDS011;23928;47.562;7.508;2023-12-28T09:15:08;40.67;;;18.73;;
38117;SDS011;23928;47.562;7.508;2023-12-28T09:17:34;25.23;;;14.43;;
38117;SDS011;23928;47.562;7.508;2023-12-28T09:20:00;15.87;;;9.33;;
38117;SDS011;23928;47.562;7.508;2023-12-28T09:22:29;13.27;;;7.50;;
38117;SDS011;23928;47.562;7.508;2023-12-28T09:24:55;18.63;;;9.10;;
38117;SDS011;23928;47.562;7.508;2023-12-28T09:27:20;19.10;;;8.93;;
38117;SDS011;23928;47.562;7.508;2023-12-28T09:29:46;21.80;;;10.13;;
38117;SDS011;23928;47.562;7.508;2023-12-28T09:32:11;25.07;;;10.40;;
38117;SDS011;23928;47.562;7.508;2023-12-28T09:34:37;25.37;;;12.67;;
38117;SDS011;23928;47.562;7.508;2023-12-28T09:37:03;16.13;;;9.03;;
38117;SDS011;23928;47.562;7.508;2023-12-28T09:39:28;17.30;;;8.80;;
38117;SDS011;23928;47.562;7.508;2023-12-28T09:42:40;12.43;;;7.33;;
38117;SDS011;23928;47.562;7.508;2023-12-28T09:44:50;17.17;;;8.13;;
38117;SDS011;23928;47.562;7.508;2023-12-28T09:47:16;19.07;;;10.30;;
38117;SDS011;23928;47.562;7.508;2023-12-28T09:49:42;14.87;;;7.83;;
38117;SDS011;23928;47.562;7.508;2023-12-28T09:52:09;12.60;;;6.97;;
38117;SDS011;23928;47.562;7.508;2023-12-28T09:54:35;16.63;;;8.93;;
38117;SDS011;23928;47.562;7.508;2023-12-28T09:57:00;12.87;;;7.77;;
38117;SDS011;23928;47.562;7.508;2023-12-28T09:59:27;11.60;;;5.90;;
38117;SDS011;23928;47.562;7.508;2023-12-28T10:01:54;8.47;;;4.80;;
38117;SDS011;23928;47.562;7.508;2023-12-28T10:04:20;9.93;;;5.53;;
38117;SDS011;23928;47.562;7.508;2023-12-28T10:06:46;8.03;;;6.40;;
38117;SDS011;23928;47.562;7.508;2023-12-28T10:09:12;9.60;;;5.27;;
38117;SDS011;23928;47.562;7.508;2023-12-28T10:11:38;9.00;;;5.53;;
38117;SDS011;23928;47.562;7.508;2023-12-28T10:14:04;7.63;;;4.50;;
38117;SDS011;23928;47.562;7.508;2023-12-28T10:16:29;7.27;;;5.40;;
38117;SDS011;23928;47.562;7.508;2023-12-28T10:18:55;7.43;;;5.63;;
38117;SDS011;23928;47.562;7.508;2023-12-28T10:21:24;10.93;;;6.90;;
38117;SDS011;23928;47.562;7.508;2023-12-28T10:23:50;12.23;;;7.07;;
38117;SDS011;23928;47.562;7.508;2023-12-28T10:26:17;12.30;;;8.73;;
38117;SDS011;23928;47.562;7.508;2023-12-28T10:28:44;10.93;;;7.50;;
38117;SDS011;23928;47.562;7.508;2023-12-28T10:31:09;9.33;;;5.77;;
38117;SDS011;23928;47.562;7.508;2023-12-28T10:33:35;10.30;;;6.13;;
38117;SDS011;23928;47.562;7.508;2023-12-28T10:36:03;15.27;;;9.80;;
38117;SDS011;23928;47.562;7.508;2023-12-28T10:38:35;15.23;;;9.67;;
38117;SDS011;23928;47.562;7.508;2023-12-28T10:41:02;14.80;;;10.67;;
38117;SDS011;23928;47.562;7.508;2023-12-28T10:43:31;15.03;;;8.33;;
38117;SDS011;23928;47.562;7.508;2023-12-28T10:46:07;9.90;;;6.70;;
38117;SDS011;23928;47.562;7.508;2023-12-28T10:48:35;9.40;;;5.47;;
38117;SDS011;23928;47.562;7.508;2023-12-28T10:51:04;11.93;;;5.67;;
38117;SDS011;23928;47.562;7.508;2023-12-28T10:58:52;12.30;;;6.60;;
38117;SDS011;23928;47.562;7.508;2023-12-28T11:01:39;14.27;;;8.73;;
38117;SDS011;23928;47.562;7.508;2023-12-28T11:06:42;12.67;;;8.43;;
38117;SDS011;23928;47.562;7.508;2023-12-28T11:09:09;8.43;;;5.30;;
38117;SDS011;23928;47.562;7.508;2023-12-28T11:11:36;8.03;;;5.20;;
38117;SDS011;23928;47.562;7.508;2023-12-28T11:14:03;8.90;;;5.63;;
38117;SDS011;23928;47.562;7.508;2023-12-28T11:16:29;11.07;;;6.70;;
38117;SDS011;23928;47.562;7.508;2023-12-28T11:18:57;9.50;;;6.97;;
38117;SDS011;23928;47.562;7.508;2023-12-28T11:21:24;9.00;;;6.10;;
38117;SDS011;23928;47.562;7.508;2023-12-28T11:23:50;10.93;;;5.73;;
38117;SDS011;23928;47.562;7.508;2023-12-28T11:26:19;8.87;;;5.30;;
38117;SDS011;23928;47.562;7.508;2023-12-28T11:28:46;6.67;;;5.20;;
38117;SDS011;23928;47.562;7.508;2023-12-28T11:31:15;7.10;;;5.30;;
38117;SDS011;23928;47.562;7.508;2023-12-28T11:33:45;14.17;;;11.03;;
38117;SDS011;23928;47.562;7.508;2023-12-28T11:36:21;16.80;;;10.60;;
38117;SDS011;23928;47.562;7.508;2023-12-28T11:38:50;11.23;;;6.83;;
38117;SDS011;23928;47.562;7.508;2023-12-28T11:41:20;6.23;;;4.97;;
38117;SDS011;23928;47.562;7.508;2023-12-28T11:43:51;10.97;;;6.67;;
38117;SDS011;23928;47.562;7.508;2023-12-28T11:46:18;8.33;;;5.60;;
38117;SDS011;23928;47.562;7.508;2023-12-28T11:48:44;13.13;;;7.37;;
38117;SDS011;23928;47.562;7.508;2023-12-28T11:51:10;7.87;;;5.37;;
38117;SDS011;23928;47.562;7.508;2023-12-28T11:53:35;8.53;;;4.87;;
38117;SDS011;23928;47.562;7.508;2023-12-28T11:56:01;5.97;;;4.67;;
38117;SDS011;23928;47.562;7.508;2023-12-28T11:58:28;7.20;;;4.77;;
38117;SDS011;23928;47.562;7.508;2023-12-28T12:00:53;5.67;;;4.60;;
38117;SDS011;23928;47.562;7.508;2023-12-28T12:03:19;6.13;;;4.50;;
38117;SDS011;23928;47.562;7.508;2023-12-28T12:05:44;7.83;;;4.90;;
38117;SDS011;23928;47.562;7.508;2023-12-28T12:08:10;7.03;;;4.80;;
38117;SDS011;23928;47.562;7.508;2023-12-28T12:10:39;7.43;;;5.27;;
38117;SDS011;23928;47.562;7.508;2023-12-28T12:13:06;7.33;;;4.90;;
38117;SDS011;23928;47.562;7.508;2023-12-28T12:15:32;8.17;;;6.80;;
38117;SDS011;23928;47.562;7.508;2023-12-28T12:17:58;8.00;;;6.30;;
38117;SDS011;23928;47.562;7.508;2023-12-28T12:20:24;7.97;;;6.43;;
38117;SDS011;23928;47.562;7.508;2023-12-28T12:22:51;7.67;;;6.00;;
38117;SDS011;23928;47.562;7.508;2023-12-28T12:25:17;7.03;;;6.30;;
38117;SDS011;23928;47.562;7.508;2023-12-28T12:27:44;9.50;;;6.20;;
38117;SDS011;23928;47.562;7.508;2023-12-28T12:30:10;9.43;;;6.53;;
38117;SDS011;23928;47.562;7.508;2023-12-28T12:32:36;6.70;;;5.57;;
38117;SDS011;23928;47.562;7.508;2023-12-28T12:35:05;8.30;;;5.83;;
38117;SDS011;23928;47.562;7.508;2023-12-28T12:37:31;11.37;;;6.53;;
38117;SDS011;23928;47.562;7.508;2023-12-28T12:39:57;6.67;;;5.23;;
38117;SDS011;23928;47.562;7.508;2023-12-28T12:42:22;9.17;;;5.80;;
38117;SDS011;23928;47.562;7.508;2023-12-28T12:44:48;8.23;;;5.73;;
38117;SDS011;23928;47.562;7.508;2023-12-28T12:47:13;7.60;;;5.10;;
38117;SDS011;23928;47.562;7.508;2023-12-28T12:49:39;8.23;;;6.27;;
38117;SDS011;23928;47.562;7.508;2023-12-28T12:52:08;9.87;;;5.70;;
38117;SDS011;23928;47.562;7.508;2023-12-28T12:54:33;7.70;;;5.80;;
38117;SDS011;23928;47.562;7.508;2023-12-28T12:56:59;9.77;;;5.37;;
38117;SDS011;23928;47.562;7.508;2023-12-28T12:59:24;7.60;;;4.97;;
38117;SDS011;23928;47.562;7.508;2023-12-28T13:01:51;6.53;;;5.07;;
38117;SDS011;23928;47.562;7.508;2023-12-28T13:04:18;8.53;;;5.70;;
38117;SDS011;23928;47.562;7.508;2023-12-28T13:06:44;6.70;;;4.80;;
38117;SDS011;23928;47.562;7.508;2023-12-28T13:09:10;10.63;;;6.33;;
38117;SDS011;23928;47.562;7.508;2023-12-28T13:11:36;12.10;;;6.77;;
38117;SDS011;23928;47.562;7.508;2023-12-28T13:14:02;8.90;;;6.43;;
38117;SDS011;23928;47.562;7.508;2023-12-28T13:16:29;12.13;;;7.30;;
38117;SDS011;23928;47.562;7.508;2023-12-28T13:18:55;10.93;;;7.43;;
38117;SDS011;23928;47.562;7.508;2023-12-28T13:21:21;11.00;;;6.47;;
38117;SDS011;23928;47.562;7.508;2023-12-28T13:23:47;11.17;;;6.07;;
38117;SDS011;23928;47.562;7.508;2023-12-28T13:26:13;11.40;;;5.80;;
38117;SDS011;23928;47.562;7.508;2023-12-28T13:28:38;11.97;;;6.83;;
38117;SDS011;23928;47.562;7.508;2023-12-28T13:31:04;10.07;;;7.93;;
38117;SDS011;23928;47.562;7.508;2023-12-28T13:33:29;14.17;;;7.23;;
38117;SDS011;23928;47.562;7.508;2023-12-28T13:35:55;11.90;;;7.37;;
38117;SDS011;23928;47.562;7.508;2023-12-28T13:38:21;11.90;;;7.37;;
38117;SDS011;23928;47.562;7.508;2023-12-28T13:40:47;8.97;;;6.80;;
38117;SDS011;23928;47.562;7.508;2023-12-28T13:43:12;10.23;;;7.03;;
38117;SDS011;23928;47.562;7.508;2023-12-28T13:45:38;15.63;;;7.67;;
38117;SDS011;23928;47.562;7.508;2023-12-28T13:48:03;11.03;;;7.00;;
38117;SDS011;23928;47.562;7.508;2023-12-28T13:50:29;11.53;;;7.20;;
38117;SDS011;23928;47.562;7.508;2023-12-28T13:52:56;9.93;;;7.30;;
38117;SDS011;23928;47.562;7.508;2023-12-28T13:55:21;11.63;;;8.60;;
38117;SDS011;23928;47.562;7.508;2023-12-28T13:57:47;11.43;;;7.80;;
38117;SDS011;23928;47.562;7.508;2023-12-28T14:00:12;11.70;;;7.40;;
38117;SDS011;23928;47.562;7.508;2023-12-28T14:02:39;8.63;;;6.70;;
38117;SDS011;23928;47.562;7.508;2023-12-28T14:05:06;9.87;;;6.90;;
38117;SDS011;23928;47.562;7.508;2023-12-28T14:07:32;9.40;;;6.80;;
38117;SDS011;23928;47.562;7.508;2023-12-28T14:09:58;10.20;;;7.20;;
38117;SDS011;23928;47.562;7.508;2023-12-28T14:12:23;12.07;;;8.67;;
38117;SDS011;23928;47.562;7.508;2023-12-28T14:14:49;14.73;;;9.80;;
38117;SDS011;23928;47.562;7.508;2023-12-28T14:17:15;13.07;;;9.40;;
38117;SDS011;23928;47.562;7.508;2023-12-28T14:19:44;10.13;;;8.03;;
38117;SDS011;23928;47.562;7.508;2023-12-28T14:22:11;12.80;;;8.90;;
38117;SDS011;23928;47.562;7.508;2023-12-28T14:24:37;11.73;;;8.80;;
38117;SDS011;23928;47.562;7.508;2023-12-28T14:27:03;30.03;;;16.13;;
38117;SDS011;23928;47.562;7.508;2023-12-28T14:29:29;20.33;;;12.70;;
38117;SDS011;23928;47.562;7.508;2023-12-28T14:31:55;16.67;;;9.73;;
38117;SDS011;23928;47.562;7.508;2023-12-28T14:34:21;19.43;;;10.77;;
38117;SDS011;23928;47.562;7.508;2023-12-28T14:36:47;13.83;;;8.30;;
38117;SDS011;23928;47.562;7.508;2023-12-28T14:39:15;11.57;;;6.40;;
38117;SDS011;23928;47.562;7.508;2023-12-28T14:41:44;10.23;;;6.57;;
38117;SDS011;23928;47.562;7.508;2023-12-28T14:44:09;8.43;;;6.40;;
38117;SDS011;23928;47.562;7.508;2023-12-28T14:46:35;11.37;;;6.20;;